createdAt,value
2023-01-09T19:13:54.651Z,43.33
2023-01-09T19:16:22.751Z,37.85
2023-01-09T19:18:50.701Z,31.20
2023-01-09T19:21:20.431Z,32.38
2023-01-09T19:23:49.277Z,29.05
2023-01-09T19:26:23.745Z,27.95
2023-01-09T19:28:55.169Z,27.85
2023-01-09T19:31:24.697Z,31.95
2023-01-09T19:33:53.068Z,29.75
2023-01-09T19:36:21.506Z,28.85
2023-01-09T19:38:49.639Z,26.25
2023-01-09T19:41:21.235Z,27.40
2023-01-09T19:43:49.235Z,28.42
2023-01-09T19:46:18.757Z,21.83
2023-01-09T19:48:47.029Z,24.10
2023-01-09T19:51:16.072Z,22.55
2023-01-09T19:53:44.070Z,23.02
2023-01-09T19:56:12.049Z,23.13
2023-01-09T19:58:40.675Z,25.15
2023-01-09T20:01:09.942Z,24.98
2023-01-09T20:03:38.001Z,26.13
2023-01-09T20:06:07.204Z,24.85
2023-01-09T20:08:35.216Z,29.02
2023-01-09T20:11:05.493Z,39.15
2023-01-09T20:13:34.110Z,33.97
2023-01-09T20:16:02.393Z,28.65
2023-01-09T20:18:31.538Z,23.23
2023-01-09T20:20:59.828Z,23.13
2023-01-09T20:23:28.035Z,20.23
2023-01-09T20:25:58.450Z,22.73
2023-01-09T20:28:28.216Z,24.30
2023-01-09T20:30:56.079Z,25.15
2023-01-09T20:33:24.432Z,22.38
2023-01-09T20:35:52.522Z,25.80
2023-01-09T20:38:20.433Z,19.73
2023-01-09T20:40:48.680Z,33.13
2023-01-09T20:43:17.550Z,29.35
2023-01-09T20:45:45.598Z,20.40
2023-01-09T20:48:14.600Z,19.70
2023-01-09T20:50:42.820Z,19.40
2023-01-09T20:53:10.606Z,19.30
2023-01-09T20:55:38.553Z,18.48
2023-01-09T20:58:06.394Z,21.88
2023-01-09T21:00:34.334Z,16.98
2023-01-09T21:03:02.434Z,22.15
2023-01-09T21:05:30.430Z,19.50
2023-01-09T21:07:58.365Z,19.05
2023-01-09T21:10:27.665Z,17.50
2023-01-09T21:12:55.439Z,17.55
2023-01-09T21:15:24.647Z,18.98
2023-01-09T21:17:52.622Z,19.55
2023-01-09T21:20:20.547Z,23.83
2023-01-09T21:22:49.327Z,22.67
2023-01-09T21:25:17.251Z,19.15
2023-01-09T21:27:50.375Z,22.92
2023-01-09T21:32:45.967Z,23.95
2023-01-09T21:35:13.810Z,22.80
2023-01-09T21:37:41.903Z,27.27
2023-01-09T21:40:19.385Z,23.08
2023-01-09T21:43:05.796Z,23.90
2023-01-09T21:45:52.324Z,21.23
2023-01-09T21:48:20.216Z,25.92
2023-01-09T21:50:48.126Z,22.95
2023-01-09T21:53:15.965Z,24.30
2023-01-09T21:55:43.973Z,24.25
2023-01-09T21:58:11.804Z,23.00
2023-01-09T22:00:41.190Z,20.48
2023-01-09T22:03:09.392Z,20.25
2023-01-09T22:05:37.789Z,21.00
2023-01-09T22:08:05.764Z,19.10
2023-01-09T22:10:33.644Z,20.75
2023-01-09T22:13:13.477Z,17.77
2023-01-09T22:15:41.585Z,18.10
2023-01-09T22:18:09.553Z,16.55
2023-01-09T22:20:37.425Z,19.63
2023-01-09T22:23:05.320Z,27.33
2023-01-09T22:25:33.167Z,21.88
2023-01-09T22:28:01.079Z,21.25
2023-01-09T22:30:28.886Z,23.52
2023-01-09T22:32:56.865Z,23.33
2023-01-09T22:35:24.658Z,24.50
2023-01-09T22:37:52.660Z,25.15
2023-01-09T22:40:20.515Z,18.17
2023-01-09T22:42:48.366Z,21.13
2023-01-09T22:45:16.541Z,29.85
2023-01-09T22:47:44.412Z,24.30
2023-01-09T22:50:12.415Z,25.83
2023-01-09T22:52:40.441Z,22.55
2023-01-09T22:55:08.892Z,19.58
2023-01-09T22:57:36.634Z,22.08
2023-01-09T23:00:05.130Z,20.08
2023-01-09T23:02:33.078Z,17.17
2023-01-09T23:05:01.019Z,17.65
2023-01-09T23:07:28.793Z,20.00
2023-01-09T23:10:00.386Z,20.33
2023-01-09T23:12:28.563Z,21.23
2023-01-09T23:14:56.489Z,22.10
2023-01-09T23:17:24.471Z,18.50
2023-01-09T23:19:52.265Z,18.83
2023-01-09T23:22:20.365Z,22.00
2023-01-09T23:24:48.290Z,21.92
2023-01-09T23:27:16.219Z,20.23
2023-01-09T23:29:44.049Z,20.65
2023-01-09T23:32:14.097Z,25.40
2023-01-09T23:34:42.510Z,26.45
2023-01-09T23:37:10.369Z,21.40
2023-01-09T23:39:38.342Z,19.27
2023-01-09T23:42:25.053Z,20.80
2023-01-09T23:44:52.933Z,19.52
2023-01-09T23:47:21.052Z,20.98
2023-01-09T23:49:49.054Z,21.27
2023-01-09T23:52:16.818Z,19.95
2023-01-09T23:54:44.646Z,21.27
2023-01-09T23:57:12.577Z,24.42
2023-01-09T23:59:40.393Z,24.35
